PWSweather.com
Personal Weather Stations
Station Observations
SHAHALMS1
Eftra, Falkenberg, HA

EftraFalkenberg, HA

Lat: 56.85, Lon: 12.65

Elevation: 140

Station Type:

http://hem.passagen.se/risarp101

High Low Average
Temperature 89.2°F31.8°C 66.4°F19.1°C 75.2°F24.0°C
Dew Point 66.0°F18.9°C 49.7°F9.8°C 59.3°F15.2°C
Winds 12.7 mph 20.4 kmh Calm Calm 3.0 mph S4.8 kmh S
Wind Gusts 28.3 mph45.5 kmh -- 7.0 mph11.3 kmh
Humidity 86% 32% 60%
Pressure 29.83 in1010.2 mb 29.71 in1006.1 mb -
Precipitation 0.09 in2.3 mm - -
Hour Temp Dew Point Humidity Winds Wind Gusts Pressure Precip Precip Rate Daily Precip Total
12:00 AM 69.3°F20.7°C 49.8°F9.9°C 50% 1.2 mph S1.9 kmh S 1.4 mph2.3 kmh 29.83 in1010.2 mb 0.00 in0.0 mm 0.00 in0.0 mm 0.00 in0.0 mm
12:15 AM 69.1°F20.6°C 49.7°F9.8°C 50% 1.2 mph S1.9 kmh S 1.4 mph2.3 kmh 29.80 in1009.1 mb 0.00 in0.0 mm 0.00 in0.0 mm 0.00 in0.0 mm
12:30 AM 68.9°F20.5°C 50.0°F10.0°C 51% 1.2 mph S1.9 kmh S 1.4 mph2.3 kmh 29.83 in1010.2 mb 0.00 in0.0 mm 0.00 in0.0 mm 0.00 in0.0 mm
12:45 AM 68.5°F20.3°C 50.2°F10.1°C 52% 1.2 mph S1.9 kmh S 1.4 mph2.3 kmh 29.80 in1009.1 mb 0.00 in0.0 mm 0.00 in0.0 mm 0.00 in0.0 mm
01:00 AM 68.4°F20.2°C 50.6°F10.3°C 53% 1.2 mph S1.9 kmh S 1.4 mph2.3 kmh 29.77 in1008.1 mb 0.00 in0.0 mm 0.00 in0.0 mm 0.00 in0.0 mm
01:15 AM 68.4°F20.2°C 51.1°F10.6°C 54% 1.2 mph S1.9 kmh S 1.4 mph2.3 kmh 29.80 in1009.1 mb 0.00 in0.0 mm 0.00 in0.0 mm 0.00 in0.0 mm
01:30 AM 68.2°F20.1°C 51.4°F10.8°C 55% 1.2 mph S1.9 kmh S 1.4 mph2.3 kmh 29.80 in1009.1 mb 0.00 in0.0 mm 0.00 in0.0 mm 0.00 in0.0 mm
01:45 AM 68.0°F20.0°C 51.7°F10.9°C 56% 1.2 mph S1.9 kmh S 1.4 mph2.3 kmh 29.80 in1009.1 mb 0.00 in0.0 mm 0.00 in0.0 mm 0.00 in0.0 mm
02:00 AM 68.2°F20.1°C 52.4°F11.3°C 57% 1.2 mph S1.9 kmh S 1.4 mph2.3 kmh 29.80 in1009.1 mb 0.00 in0.0 mm 0.00 in0.0 mm 0.00 in0.0 mm
02:15 AM 67.8°F19.9°C 53.0°F11.7°C 59% 1.2 mph S1.9 kmh S 1.4 mph2.3 kmh 29.80 in1009.1 mb 0.00 in0.0 mm 0.00 in0.0 mm 0.00 in0.0 mm
02:30 AM 67.5°F19.7°C 52.6°F11.4°C 59% 1.2 mph S1.9 kmh S 1.4 mph2.3 kmh 29.77 in1008.1 mb 0.00 in0.0 mm 0.00 in0.0 mm 0.00 in0.0 mm
02:45 AM 67.5°F19.7°C 53.5°F11.9°C 61% 1.2 mph S1.9 kmh S 1.4 mph2.3 kmh 29.77 in1008.1 mb 0.00 in0.0 mm 0.00 in0.0 mm 0.00 in0.0 mm
03:00 AM 67.1°F19.5°C 53.2°F11.8°C 61% 1.2 mph S1.9 kmh S 1.4 mph2.3 kmh 29.77 in1008.1 mb 0.00 in0.0 mm 0.00 in0.0 mm 0.00 in0.0 mm
03:15 AM 66.7°F19.3°C 53.3°F11.8°C 62% 1.2 mph S1.9 kmh S 1.4 mph2.3 kmh 29.74 in1007.1 mb 0.00 in0.0 mm 0.00 in0.0 mm 0.00 in0.0 mm
03:30 AM 66.6°F19.2°C 53.1°F11.7°C 62% 1.2 mph S1.9 kmh S 1.4 mph2.3 kmh 29.74 in1007.1 mb 0.00 in0.0 mm 0.00 in0.0 mm 0.00 in0.0 mm
03:45 AM 66.4°F19.1°C 53.8°F12.1°C 64% 1.2 mph S1.9 kmh S 1.4 mph2.3 kmh 29.74 in1007.1 mb 0.00 in0.0 mm 0.00 in0.0 mm 0.00 in0.0 mm
04:00 AM 66.6°F19.2°C 54.4°F12.4°C 65% 1.2 mph S1.9 kmh S 1.4 mph2.3 kmh 29.74 in1007.1 mb 0.00 in0.0 mm 0.00 in0.0 mm 0.00 in0.0 mm
04:15 AM 66.4°F19.1°C 54.3°F12.4°C 65% 1.2 mph S1.9 kmh S 1.4 mph2.3 kmh 29.71 in1006.1 mb 0.00 in0.0 mm 0.00 in0.0 mm 0.00 in0.0 mm
04:30 AM 66.9°F19.4°C 55.6°F13.1°C 67% 1.2 mph S1.9 kmh S 1.4 mph2.3 kmh 29.74 in1007.1 mb 0.00 in0.0 mm 0.00 in0.0 mm 0.00 in0.0 mm
04:45 AM 67.5°F19.7°C 56.5°F13.6°C 68% 1.2 mph S1.9 kmh S 1.4 mph2.3 kmh 29.74 in1007.1 mb 0.00 in0.0 mm 0.00 in0.0 mm 0.00 in0.0 mm
05:00 AM 68.0°F20.0°C 57.0°F13.9°C 68% 1.2 mph S1.9 kmh S 1.4 mph2.3 kmh 29.74 in1007.1 mb 0.00 in0.0 mm 0.00 in0.0 mm 0.00 in0.0 mm
05:15 AM 68.5°F20.3°C 57.1°F13.9°C 67% 1.2 mph S1.9 kmh S 1.4 mph2.3 kmh 29.74 in1007.1 mb 0.00 in0.0 mm 0.00 in0.0 mm 0.00 in0.0 mm
05:30 AM 68.9°F20.5°C 57.5°F14.2°C 67% 1.2 mph S1.9 kmh S 1.4 mph2.3 kmh 29.74 in1007.1 mb 0.00 in0.0 mm 0.00 in0.0 mm 0.00 in0.0 mm
05:45 AM 69.6°F20.9°C 58.2°F14.6°C 67% 1.2 mph S1.9 kmh S 1.4 mph2.3 kmh 29.74 in1007.1 mb 0.00 in0.0 mm 0.00 in0.0 mm 0.00 in0.0 mm
06:00 AM 70.3°F21.3°C 58.4°F14.7°C 66% Calm Calm -- 29.74 in1007.1 mb 0.00 in0.0 mm 0.00 in0.0 mm 0.00 in0.0 mm
06:15 AM 71.2°F21.8°C 58.9°F14.9°C 65% Calm Calm -- 29.74 in1007.1 mb 0.00 in0.0 mm 0.00 in0.0 mm 0.00 in0.0 mm
06:30 AM 72.1°F22.3°C 58.8°F14.9°C 63% Calm Calm -- 29.74 in1007.1 mb 0.00 in0.0 mm 0.00 in0.0 mm 0.00 in0.0 mm
06:45 AM 73.2°F22.9°C 59.4°F15.2°C 62% Calm Calm -- 29.71 in1006.1 mb 0.00 in0.0 mm 0.00 in0.0 mm 0.00 in0.0 mm
07:00 AM 74.7°F23.7°C 59.9°F15.5°C 60% Calm Calm -- 29.71 in1006.1 mb 0.00 in0.0 mm 0.00 in0.0 mm 0.00 in0.0 mm
07:15 AM 75.6°F24.2°C 58.8°F14.9°C 56% Calm Calm -- 29.71 in1006.1 mb 0.00 in0.0 mm 0.00 in0.0 mm 0.00 in0.0 mm
07:30 AM 77.0°F25.0°C 59.1°F15.1°C 54% Calm Calm -- 29.71 in1006.1 mb 0.00 in0.0 mm 0.00 in0.0 mm 0.00 in0.0 mm
07:45 AM 78.6°F25.9°C 59.0°F15.0°C 51% Calm Calm -- 29.71 in1006.1 mb 0.00 in0.0 mm 0.00 in0.0 mm 0.00 in0.0 mm
08:00 AM 79.9°F26.6°C 59.0°F15.0°C 49% Calm Calm -- 29.71 in1006.1 mb 0.00 in0.0 mm 0.00 in0.0 mm 0.00 in0.0 mm
08:15 AM 81.0°F27.2°C 58.2°F14.6°C 46% Calm Calm -- 29.71 in1006.1 mb 0.00 in0.0 mm 0.00 in0.0 mm 0.00 in0.0 mm
08:30 AM 82.6°F28.1°C 59.1°F15.1°C 45% Calm Calm -- 29.71 in1006.1 mb 0.00 in0.0 mm 0.00 in0.0 mm 0.00 in0.0 mm
08:45 AM 84.0°F28.9°C 58.5°F14.7°C 42% 8.0 mph SSE12.9 kmh SSE 16.8 mph27.0 kmh 29.71 in1006.1 mb 0.00 in0.0 mm 0.00 in0.0 mm 0.00 in0.0 mm
09:00 AM 84.9°F29.4°C 57.2°F14.0°C 39% 9.9 mph SE15.9 kmh SE 21.1 mph34.0 kmh 29.71 in1006.1 mb 0.00 in0.0 mm 0.00 in0.0 mm 0.00 in0.0 mm
09:15 AM 86.0°F30.0°C 55.2°F12.9°C 35% 8.4 mph SE13.5 kmh SE 21.1 mph34.0 kmh 29.71 in1006.1 mb 0.00 in0.0 mm 0.00 in0.0 mm 0.00 in0.0 mm
09:30 AM 87.1°F30.6°C 55.3°F12.9°C 34% 11.3 mph SE18.2 kmh SE 26.5 mph42.6 kmh 29.71 in1006.1 mb 0.00 in0.0 mm 0.00 in0.0 mm 0.00 in0.0 mm
09:45 AM 88.3°F31.3°C 54.7°F12.6°C 32% 10.7 mph SE17.2 kmh SE 28.3 mph45.5 kmh 29.71 in1006.1 mb 0.00 in0.0 mm 0.00 in0.0 mm 0.00 in0.0 mm
10:00 AM 88.9°F31.6°C 55.2°F12.9°C 32% 12.7 mph SE20.4 kmh SE 27.9 mph44.9 kmh 29.71 in1006.1 mb 0.00 in0.0 mm 0.00 in0.0 mm 0.00 in0.0 mm
10:15 AM 87.6°F30.9°C 58.1°F14.5°C 37% 8.9 mph SSW14.3 kmh SSW 20.4 mph32.8 kmh 29.77 in1008.1 mb 0.00 in0.0 mm 0.00 in0.0 mm 0.00 in0.0 mm
10:30 AM 87.3°F30.7°C 58.6°F14.8°C 38% 5.3 mph S8.5 kmh S 13.6 mph21.9 kmh 29.74 in1007.1 mb 0.00 in0.0 mm 0.00 in0.0 mm 0.00 in0.0 mm
10:45 AM 88.3°F31.3°C 58.0°F14.4°C 36% 7.5 mph S12.1 kmh S 19.3 mph31.1 kmh 29.74 in1007.1 mb 0.00 in0.0 mm 0.00 in0.0 mm 0.00 in0.0 mm
11:00 AM 88.3°F31.3°C 58.0°F14.4°C 36% 7.6 mph SSE12.2 kmh SSE 17.5 mph28.2 kmh 29.74 in1007.1 mb 0.00 in0.0 mm 0.00 in0.0 mm 0.00 in0.0 mm
11:15 AM 89.2°F31.8°C 57.2°F14.0°C 34% 8.9 mph SSE14.3 kmh SSE 19.7 mph31.7 kmh 29.74 in1007.1 mb 0.00 in0.0 mm 0.00 in0.0 mm 0.00 in0.0 mm
11:30 AM 88.0°F31.1°C 56.9°F13.8°C 35% 9.3 mph SSW15.0 kmh SSW 17.9 mph28.8 kmh 29.74 in1007.1 mb 0.00 in0.0 mm 0.00 in0.0 mm 0.00 in0.0 mm
11:45 AM 87.3°F30.7°C 60.0°F15.6°C 40% 7.0 mph SSW11.3 kmh SSW 19.7 mph31.7 kmh 29.74 in1007.1 mb 0.00 in0.0 mm 0.00 in0.0 mm 0.00 in0.0 mm
12:00 PM 84.6°F29.2°C 60.2°F15.7°C 44% 9.5 mph W15.3 kmh W 21.8 mph35.1 kmh 29.74 in1007.1 mb 0.00 in0.0 mm 0.00 in0.0 mm 0.00 in0.0 mm
12:15 PM 85.6°F29.8°C 61.9°F16.6°C 45% 6.4 mph SW10.3 kmh SW 17.2 mph27.7 kmh 29.74 in1007.1 mb 0.00 in0.0 mm 0.00 in0.0 mm 0.00 in0.0 mm
12:30 PM 86.0°F30.0°C 61.5°F16.4°C 44% 7.4 mph SW11.9 kmh SW 19.3 mph31.1 kmh 29.74 in1007.1 mb 0.00 in0.0 mm 0.00 in0.0 mm 0.00 in0.0 mm
12:45 PM 83.5°F28.6°C 61.1°F16.2°C 47% 5.0 mph W8.0 kmh W 7.9 mph12.7 kmh 29.77 in1008.1 mb 0.00 in0.0 mm 0.00 in0.0 mm 0.00 in0.0 mm
01:00 PM 81.7°F27.6°C 61.2°F16.2°C 50% 3.4 mph W5.5 kmh W 6.8 mph10.9 kmh 29.77 in1008.1 mb 0.00 in0.0 mm 0.00 in0.0 mm 0.00 in0.0 mm
01:15 PM 81.5°F27.5°C 61.1°F16.2°C 50% 1.8 mph WNW2.9 kmh WNW 7.9 mph12.7 kmh 29.77 in1008.1 mb 0.00 in0.0 mm 0.00 in0.0 mm 0.00 in0.0 mm
01:30 PM 81.9°F27.7°C 62.0°F16.7°C 51% 3.7 mph NW6.0 kmh NW 9.7 mph15.6 kmh 29.77 in1008.1 mb 0.00 in0.0 mm 0.00 in0.0 mm 0.00 in0.0 mm
01:45 PM 82.0°F27.8°C 61.6°F16.4°C 50% 2.0 mph NW3.2 kmh NW 4.7 mph7.6 kmh 29.77 in1008.1 mb 0.00 in0.0 mm 0.00 in0.0 mm 0.00 in0.0 mm
02:00 PM 81.9°F27.7°C 61.4°F16.3°C 50% 2.0 mph NW3.2 kmh NW 6.8 mph10.9 kmh 29.77 in1008.1 mb 0.00 in0.0 mm 0.00 in0.0 mm 0.00 in0.0 mm
02:15 PM 82.0°F27.8°C 61.0°F16.1°C 49% 0.9 mph NW1.4 kmh NW 2.5 mph4.0 kmh 29.74 in1007.1 mb 0.00 in0.0 mm 0.00 in0.0 mm 0.00 in0.0 mm
02:30 PM 82.9°F28.3°C 61.2°F16.2°C 48% 2.0 mph NW3.2 kmh NW 6.4 mph10.3 kmh 29.71 in1006.1 mb 0.00 in0.0 mm 0.00 in0.0 mm 0.00 in0.0 mm
02:45 PM 83.5°F28.6°C 61.1°F16.2°C 47% 3.3 mph W5.3 kmh W 4.7 mph7.6 kmh 29.71 in1006.1 mb 0.00 in0.0 mm 0.00 in0.0 mm 0.00 in0.0 mm
03:00 PM 83.7°F28.7°C 60.7°F15.9°C 46% 1.3 mph N2.1 kmh N 4.7 mph7.6 kmh 29.77 in1008.1 mb 0.00 in0.0 mm 0.00 in0.0 mm 0.00 in0.0 mm
03:15 PM 83.3°F28.5°C 60.4°F15.8°C 46% 0.5 mph S0.8 kmh S 3.9 mph6.3 kmh 29.74 in1007.1 mb 0.00 in0.0 mm 0.00 in0.0 mm 0.00 in0.0 mm
03:30 PM 83.8°F28.8°C 60.8°F16.0°C 46% 3.4 mph E5.5 kmh E 7.9 mph12.7 kmh 29.74 in1007.1 mb 0.00 in0.0 mm 0.00 in0.0 mm 0.00 in0.0 mm
03:45 PM 83.8°F28.8°C 60.2°F15.7°C 45% 2.4 mph ESE3.9 kmh ESE 7.5 mph12.1 kmh 29.74 in1007.1 mb 0.00 in0.0 mm 0.00 in0.0 mm 0.00 in0.0 mm
04:00 PM 82.6°F28.1°C 59.7°F15.4°C 46% 1.5 mph S2.4 kmh S 6.4 mph10.3 kmh 29.77 in1008.1 mb 0.00 in0.0 mm 0.00 in0.0 mm 0.00 in0.0 mm
04:30 PM 74.1°F23.4°C 60.7°F15.9°C 63% 4.1 mph S6.6 kmh S 11.5 mph18.5 kmh 29.80 in1009.1 mb 0.05 in1.3 mm 0.10 in2.5 mm 0.05 in1.3 mm
04:45 PM 72.9°F22.7°C 62.1°F16.7°C 69% 4.1 mph S6.6 kmh S 9.7 mph15.6 kmh 29.80 in1009.1 mb 0.05 in1.3 mm 0.00 in0.0 mm 0.05 in1.3 mm
05:00 PM 72.0°F22.2°C 62.4°F16.9°C 72% 5.9 mph SE9.5 kmh SE 11.8 mph19.0 kmh 29.77 in1008.1 mb 0.09 in2.3 mm 0.05 in1.3 mm 0.09 in2.3 mm
05:15 PM 71.8°F22.1°C 63.8°F17.7°C 76% 5.9 mph E9.5 kmh E 10.0 mph16.1 kmh 29.74 in1007.1 mb 0.09 in2.3 mm 0.00 in0.0 mm 0.09 in2.3 mm
05:30 PM 72.0°F22.2°C 64.4°F18.0°C 77% 6.1 mph SE9.8 kmh SE 12.5 mph20.1 kmh 29.74 in1007.1 mb 0.05 in1.3 mm 0.00 in0.0 mm 0.09 in2.3 mm
05:45 PM 72.1°F22.3°C 64.9°F18.3°C 78% 1.7 mph ESE2.7 kmh ESE 5.0 mph8.0 kmh 29.74 in1007.1 mb 0.05 in1.3 mm 0.00 in0.0 mm 0.09 in2.3 mm
06:00 PM 72.7°F22.6°C 65.8°F18.8°C 79% 4.3 mph E6.9 kmh E 8.9 mph14.3 kmh 29.74 in1007.1 mb 0.00 in0.0 mm 0.00 in0.0 mm 0.09 in2.3 mm
06:15 PM 73.2°F22.9°C 65.9°F18.8°C 78% 3.8 mph S6.1 kmh S 7.5 mph12.1 kmh 29.74 in1007.1 mb 0.00 in0.0 mm 0.00 in0.0 mm 0.09 in2.3 mm
06:30 PM 73.2°F22.9°C 65.9°F18.8°C 78% 4.3 mph SE6.9 kmh SE 6.8 mph10.9 kmh 29.74 in1007.1 mb 0.00 in0.0 mm 0.00 in0.0 mm 0.09 in2.3 mm
06:45 PM 72.9°F22.7°C 66.0°F18.9°C 79% 4.3 mph SE6.9 kmh SE 7.9 mph12.7 kmh 29.74 in1007.1 mb 0.00 in0.0 mm 0.00 in0.0 mm 0.09 in2.3 mm
07:01 PM 72.1°F22.3°C 65.3°F18.5°C 79% 5.1 mph SE8.2 kmh SE 9.3 mph15.0 kmh 29.74 in1007.1 mb 0.00 in0.0 mm 0.00 in0.0 mm 0.09 in2.3 mm
07:15 PM 71.6°F22.0°C 64.4°F18.0°C 78% 3.4 mph SE5.5 kmh SE 5.4 mph8.7 kmh 29.74 in1007.1 mb 0.00 in0.0 mm 0.00 in0.0 mm 0.09 in2.3 mm
07:30 PM 70.9°F21.6°C 63.7°F17.6°C 78% 6.6 mph S10.6 kmh S 10.4 mph16.7 kmh 29.77 in1008.1 mb 0.00 in0.0 mm 0.00 in0.0 mm 0.09 in2.3 mm
07:45 PM 70.2°F21.2°C 63.3°F17.4°C 79% 1.7 mph S2.7 kmh S 2.1 mph3.4 kmh 29.77 in1008.1 mb 0.00 in0.0 mm 0.00 in0.0 mm 0.09 in2.3 mm
08:00 PM 69.8°F21.0°C 63.0°F17.2°C 79% 3.5 mph S5.6 kmh S 4.7 mph7.6 kmh 29.77 in1008.1 mb 0.00 in0.0 mm 0.00 in0.0 mm 0.09 in2.3 mm
08:15 PM 69.8°F21.0°C 63.0°F17.2°C 79% 3.8 mph S6.1 kmh S 4.7 mph7.6 kmh 29.77 in1008.1 mb 0.00 in0.0 mm 0.00 in0.0 mm 0.09 in2.3 mm
08:30 PM 69.8°F21.0°C 62.6°F17.0°C 78% 3.8 mph S6.1 kmh S 4.7 mph7.6 kmh 29.77 in1008.1 mb 0.00 in0.0 mm 0.00 in0.0 mm 0.09 in2.3 mm
08:45 PM 69.8°F21.0°C 62.6°F17.0°C 78% 7.3 mph SSE11.7 kmh SSE 8.9 mph14.3 kmh 29.80 in1009.1 mb 0.00 in0.0 mm 0.00 in0.0 mm 0.09 in2.3 mm
09:00 PM 69.8°F21.0°C 63.0°F17.2°C 79% 3.2 mph S5.1 kmh S 3.9 mph6.3 kmh 29.80 in1009.1 mb 0.00 in0.0 mm 0.00 in0.0 mm 0.09 in2.3 mm
09:15 PM 69.8°F21.0°C 63.3°F17.4°C 80% 5.5 mph S8.9 kmh S 6.8 mph10.9 kmh 29.80 in1009.1 mb 0.00 in0.0 mm 0.00 in0.0 mm 0.09 in2.3 mm
09:30 PM 69.8°F21.0°C 63.7°F17.6°C 81% 4.9 mph S7.9 kmh S 9.7 mph15.6 kmh 29.83 in1010.2 mb 0.00 in0.0 mm 0.00 in0.0 mm 0.09 in2.3 mm
09:45 PM 70.2°F21.2°C 64.4°F18.0°C 82% 5.6 mph S9.0 kmh S 9.3 mph15.0 kmh 29.77 in1008.1 mb 0.00 in0.0 mm 0.00 in0.0 mm 0.09 in2.3 mm
10:00 PM 70.0°F21.1°C 64.2°F17.9°C 82% 3.2 mph S5.1 kmh S 3.9 mph6.3 kmh 29.77 in1008.1 mb 0.00 in0.0 mm 0.00 in0.0 mm 0.09 in2.3 mm
10:15 PM 69.8°F21.0°C 64.1°F17.8°C 82% 3.2 mph S5.1 kmh S 3.9 mph6.3 kmh 29.80 in1009.1 mb 0.00 in0.0 mm 0.00 in0.0 mm 0.09 in2.3 mm
10:30 PM 69.8°F21.0°C 64.7°F18.2°C 84% 3.2 mph S5.1 kmh S 3.9 mph6.3 kmh 29.80 in1009.1 mb 0.00 in0.0 mm 0.00 in0.0 mm 0.09 in2.3 mm
10:45 PM 69.8°F21.0°C 64.7°F18.2°C 84% 3.2 mph S5.1 kmh S 3.9 mph6.3 kmh 29.80 in1009.1 mb 0.00 in0.0 mm 0.00 in0.0 mm 0.09 in2.3 mm
11:00 PM 69.8°F21.0°C 64.7°F18.2°C 84% 3.2 mph S5.1 kmh S 3.9 mph6.3 kmh 29.83 in1010.2 mb 0.00 in0.0 mm 0.00 in0.0 mm 0.09 in2.3 mm
11:15 PM 69.6°F20.9°C 64.9°F18.3°C 85% 3.2 mph S5.1 kmh S 3.9 mph6.3 kmh 29.83 in1010.2 mb 0.00 in0.0 mm 0.00 in0.0 mm 0.09 in2.3 mm
11:30 PM 69.6°F20.9°C 64.9°F18.3°C 85% 2.9 mph W4.7 kmh W 3.6 mph5.8 kmh 29.83 in1010.2 mb 0.00 in0.0 mm 0.00 in0.0 mm 0.09 in2.3 mm
11:45 PM 69.6°F20.9°C 65.2°F18.4°C 86% 2.9 mph W4.7 kmh W 4.7 mph7.6 kmh 29.83 in1010.2 mb 0.00 in0.0 mm 0.00 in0.0 mm 0.09 in2.3 mm